createdAt,value
2019-02-17T00:00:35.396Z,10.97
2019-02-17T00:03:04.828Z,10.73
2019-02-17T00:05:34.102Z,9.83
2019-02-17T00:08:03.434Z,11.20
2019-02-17T00:10:32.765Z,11.17
2019-02-17T00:13:02.087Z,10.30
2019-02-17T00:15:31.460Z,11.27
2019-02-17T00:18:00.822Z,11.93
2019-02-17T00:20:30.125Z,12.13
2019-02-17T00:22:59.418Z,11.03
2019-02-17T00:25:29.248Z,10.97
2019-02-17T00:27:58.557Z,10.27
2019-02-17T00:30:27.862Z,10.70
2019-02-17T00:32:57.255Z,10.70
2019-02-17T00:35:26.579Z,20.97
2019-02-17T00:37:55.888Z,12.13
2019-02-17T00:40:25.176Z,11.37
2019-02-17T00:42:54.504Z,11.37
2019-02-17T00:45:23.776Z,11.20
2019-02-17T00:47:53.096Z,10.50
2019-02-17T00:50:22.425Z,11.30
2019-02-17T00:52:51.812Z,11.70
2019-02-17T00:55:21.145Z,10.07
2019-02-17T00:57:50.502Z,10.70
2019-02-17T01:00:19.827Z,9.80
2019-02-17T01:02:49.115Z,11.70
2019-02-17T01:05:18.427Z,9.67
2019-02-17T01:07:47.704Z,10.07
2019-02-17T01:10:17.069Z,11.73
2019-02-17T01:12:46.388Z,8.13
2019-02-17T01:15:15.808Z,11.37
2019-02-17T01:17:45.165Z,11.17
2019-02-17T01:20:14.478Z,8.93
2019-02-17T01:22:43.744Z,7.87
2019-02-17T01:25:13.016Z,8.97
2019-02-17T01:27:42.328Z,9.80
2019-02-17T01:30:14.186Z,9.47
2019-02-17T01:32:43.528Z,8.93
2019-02-17T01:35:12.808Z,8.70
2019-02-17T01:37:42.135Z,8.33
2019-02-17T01:40:13.921Z,8.57
2019-02-17T01:42:43.250Z,8.20
2019-02-17T01:45:12.541Z,7.07
2019-02-17T01:47:41.822Z,8.53
2019-02-17T01:50:11.156Z,8.70
2019-02-17T01:52:40.509Z,7.43
2019-02-17T01:55:09.879Z,8.90
2019-02-17T01:57:39.211Z,7.13
2019-02-17T02:00:10.700Z,7.50
2019-02-17T02:02:40.003Z,9.77
2019-02-17T02:05:09.448Z,9.60
2019-02-17T02:07:38.731Z,8.10
2019-02-17T02:10:08.425Z,7.33
2019-02-17T02:12:37.736Z,9.47
2019-02-17T02:15:09.196Z,10.73
2019-02-17T02:17:38.527Z,7.33
2019-02-17T02:20:09.704Z,6.27
2019-02-17T02:22:38.996Z,8.63
2019-02-17T02:25:08.361Z,6.57
2019-02-17T02:27:37.775Z,7.40
2019-02-17T02:30:09.010Z,9.07
2019-02-17T02:32:38.336Z,7.27
2019-02-17T02:35:08.190Z,7.33
2019-02-17T02:37:38.368Z,7.97
2019-02-17T02:40:07.745Z,7.40
2019-02-17T02:42:37.137Z,7.67
2019-02-17T02:45:07.708Z,7.57
2019-02-17T02:47:37.020Z,8.40
2019-02-17T02:50:07.145Z,6.80
2019-02-17T02:52:36.477Z,9.20
2019-02-17T02:55:06.128Z,7.63
2019-02-17T02:57:35.469Z,6.70
2019-02-17T03:00:05.907Z,8.33
2019-02-17T03:02:35.179Z,9.17
2019-02-17T03:05:05.244Z,9.07
2019-02-17T03:07:34.516Z,7.87
2019-02-17T03:10:03.862Z,9.97
2019-02-17T03:12:33.184Z,7.47
2019-02-17T03:15:02.457Z,9.83
2019-02-17T03:17:31.794Z,8.97
2019-02-17T03:20:01.217Z,8.70
2019-02-17T03:22:30.532Z,9.03
2019-02-17T03:25:00.878Z,10.10
2019-02-17T03:27:30.205Z,8.67
2019-02-17T03:30:04.816Z,10.50
2019-02-17T03:32:30.534Z,10.40
2019-02-17T03:34:59.820Z,8.43
2019-02-17T03:37:29.150Z,5.67
2019-02-17T03:39:58.433Z,5.93
2019-02-17T03:42:27.786Z,6.43
2019-02-17T03:44:57.115Z,7.77
2019-02-17T03:47:26.412Z,8.00
2019-02-17T03:49:55.801Z,8.47
2019-02-17T03:52:25.150Z,8.80
2019-02-17T03:54:54.628Z,7.47
2019-02-17T03:57:23.890Z,5.80
2019-02-17T03:59:53.216Z,7.70
2019-02-17T04:02:22.515Z,6.00
2019-02-17T04:04:51.840Z,9.37
2019-02-17T04:07:21.554Z,7.27
2019-02-17T04:09:51.280Z,7.90
2019-02-17T04:12:20.628Z,8.57
2019-02-17T04:14:49.951Z,6.83
2019-02-17T04:17:19.263Z,8.03
2019-02-17T04:19:48.948Z,6.47
2019-02-17T04:22:18.262Z,6.10
2019-02-17T04:24:47.586Z,7.97
2019-02-17T04:27:16.878Z,7.63
2019-02-17T04:29:46.276Z,8.80
2019-02-17T04:32:15.565Z,6.43
2019-02-17T04:34:44.926Z,7.43
2019-02-17T04:37:14.240Z,7.40
2019-02-17T04:39:43.509Z,5.63
2019-02-17T04:42:12.832Z,6.07
2019-02-17T04:44:42.134Z,7.70
2019-02-17T04:47:11.516Z,7.87
2019-02-17T04:49:40.866Z,6.43
2019-02-17T04:52:10.252Z,6.07
2019-02-17T04:54:39.650Z,8.13
2019-02-17T04:57:08.971Z,8.50
2019-02-17T04:59:38.255Z,9.70
2019-02-17T05:02:07.577Z,11.23
2019-02-17T05:04:36.951Z,9.63
2019-02-17T05:07:06.264Z,8.50
2019-02-17T05:09:35.599Z,11.40
2019-02-17T05:12:04.882Z,9.33
2019-02-17T05:14:34.220Z,10.77
2019-02-17T05:17:03.481Z,7.70
2019-02-17T05:19:32.807Z,8.50
2019-02-17T05:22:02.080Z,9.17
2019-02-17T05:24:31.394Z,10.37
2019-02-17T05:27:00.708Z,10.37
2019-02-17T05:29:30.034Z,9.13
2019-02-17T05:31:59.545Z,12.10
2019-02-17T05:34:28.836Z,11.83
2019-02-17T05:36:58.122Z,12.53
2019-02-17T05:39:27.445Z,10.07
2019-02-17T05:41:56.776Z,10.80
2019-02-17T05:44:26.102Z,9.73
2019-02-17T05:46:55.434Z,12.73
2019-02-17T05:49:24.768Z,11.20
2019-02-17T05:51:54.077Z,8.60
2019-02-17T05:54:23.480Z,11.70
2019-02-17T05:56:52.784Z,9.73
2019-02-17T05:59:22.112Z,10.93
2019-02-17T06:01:51.398Z,10.77
2019-02-17T06:04:20.719Z,10.57
2019-02-17T06:06:49.998Z,11.07
2019-02-17T06:09:19.318Z,11.60
2019-02-17T06:11:48.645Z,9.40
2019-02-17T06:14:17.924Z,10.00
2019-02-17T06:16:47.209Z,10.87
2019-02-17T06:19:17.779Z,8.70
2019-02-17T06:21:47.832Z,6.83
2019-02-17T06:24:17.118Z,9.47
2019-02-17T06:26:46.512Z,8.43
2019-02-17T06:29:15.794Z,6.03
2019-02-17T06:31:45.116Z,23.73
2019-02-17T06:34:14.434Z,10.67
2019-02-17T06:36:43.829Z,20.10
2019-02-17T06:39:13.109Z,13.90
2019-02-17T06:41:42.441Z,17.13
2019-02-17T06:44:11.762Z,16.57
2019-02-17T06:46:45.697Z,11.90
2019-02-17T06:49:15.011Z,9.90
2019-02-17T06:51:44.328Z,9.20
2019-02-17T06:54:13.655Z,8.60
2019-02-17T06:56:53.925Z,24.93
2019-02-17T06:59:23.244Z,15.63
2019-02-17T07:01:52.596Z,15.57
2019-02-17T07:04:28.535Z,12.93
2019-02-17T07:07:01.581Z,13.90
2019-02-17T07:09:30.911Z,15.47
2019-02-17T07:12:00.196Z,14.93
2019-02-17T07:14:29.536Z,20.07
2019-02-17T07:16:58.864Z,25.00
2019-02-17T07:19:28.161Z,26.33
2019-02-17T07:21:57.572Z,19.90
2019-02-17T07:24:27.008Z,15.50
2019-02-17T07:26:56.336Z,12.83
2019-02-17T07:29:25.673Z,17.17
2019-02-17T07:31:55.045Z,15.13
2019-02-17T07:34:24.418Z,19.67
2019-02-17T07:36:53.732Z,16.90
2019-02-17T07:39:24.090Z,29.97
2019-02-17T07:41:53.390Z,24.00
2019-02-17T07:44:22.706Z,17.53
2019-02-17T07:46:52.052Z,15.80
2019-02-17T07:49:21.348Z,18.57
2019-02-17T07:51:50.712Z,16.30
2019-02-17T07:54:19.996Z,20.20
2019-02-17T07:56:49.541Z,20.97
2019-02-17T07:59:18.850Z,17.43
2019-02-17T08:01:48.172Z,16.83
2019-02-17T08:04:17.483Z,13.37
2019-02-17T08:06:46.848Z,16.37
2019-02-17T08:09:16.133Z,15.10
2019-02-17T08:11:45.490Z,14.40
2019-02-17T08:14:14.764Z,20.90
2019-02-17T08:16:44.047Z,17.70
2019-02-17T08:19:13.369Z,16.63
2019-02-17T08:21:42.720Z,17.43
2019-02-17T08:24:12.098Z,17.93
2019-02-17T08:26:41.396Z,15.67
2019-02-17T08:29:10.732Z,15.83
2019-02-17T08:31:40.117Z,14.67
2019-02-17T08:34:09.397Z,16.77
2019-02-17T08:36:38.738Z,15.67
2019-02-17T08:39:08.017Z,20.30
2019-02-17T08:41:37.361Z,19.87
2019-02-17T08:44:06.768Z,15.13
2019-02-17T08:46:36.062Z,17.47
2019-02-17T08:49:05.394Z,17.40
2019-02-17T08:51:34.846Z,16.87
2019-02-17T08:54:04.160Z,14.50
2019-02-17T08:56:33.456Z,12.40
2019-02-17T08:59:02.800Z,10.37
2019-02-17T09:01:32.084Z,10.03
2019-02-17T09:04:01.601Z,10.47
2019-02-17T09:06:30.931Z,12.20
2019-02-17T09:09:00.258Z,11.23
2019-02-17T09:11:29.577Z,10.53
2019-02-17T09:13:58.910Z,13.53
2019-02-17T09:16:28.257Z,11.90
2019-02-17T09:18:57.534Z,11.20
2019-02-17T09:21:26.876Z,11.13
2019-02-17T09:23:56.236Z,12.17
2019-02-17T09:26:25.512Z,12.53
2019-02-17T09:28:54.834Z,15.27
2019-02-17T09:31:24.396Z,12.43
2019-02-17T09:33:53.712Z,13.13
2019-02-17T09:36:22.991Z,11.93
2019-02-17T09:38:52.310Z,10.63
2019-02-17T09:41:22.638Z,10.90
2019-02-17T09:43:51.959Z,11.60
2019-02-17T09:46:21.256Z,11.40
2019-02-17T09:48:50.668Z,10.80
2019-02-17T09:51:19.962Z,12.40
2019-02-17T09:53:49.413Z,13.43
2019-02-17T09:56:18.727Z,11.27
2019-02-17T09:58:48.338Z,16.20
2019-02-17T10:01:18.366Z,18.10
2019-02-17T10:03:47.985Z,11.97
2019-02-17T10:06:17.917Z,10.90
2019-02-17T10:08:47.242Z,10.70
2019-02-17T10:11:16.520Z,9.50
2019-02-17T10:13:45.851Z,13.10
2019-02-17T10:16:15.170Z,12.50
2019-02-17T10:18:44.488Z,13.03
2019-02-17T10:21:13.822Z,10.17
2019-02-17T10:23:43.180Z,11.00
2019-02-17T10:26:12.516Z,11.40
2019-02-17T10:28:42.557Z,9.47
2019-02-17T10:31:12.515Z,12.57
2019-02-17T10:33:41.857Z,9.77
2019-02-17T10:36:11.156Z,11.63
2019-02-17T10:38:40.427Z,12.43
2019-02-17T10:41:09.819Z,13.67
2019-02-17T10:43:39.100Z,11.77
2019-02-17T10:46:08.409Z,12.93
2019-02-17T10:48:37.719Z,11.17
2019-02-17T10:51:07.048Z,11.80
2019-02-17T10:53:36.393Z,12.93
2019-02-17T10:56:05.720Z,11.80
2019-02-17T10:58:35.044Z,11.13
2019-02-17T11:01:04.967Z,9.47
2019-02-17T11:03:34.301Z,9.90
2019-02-17T11:06:03.596Z,11.40
2019-02-17T11:08:32.938Z,9.70
2019-02-17T11:11:02.231Z,10.17
2019-02-17T11:13:31.539Z,11.13
2019-02-17T11:16:00.868Z,13.47
2019-02-17T11:18:30.164Z,13.17
2019-02-17T11:20:59.488Z,10.60
2019-02-17T11:23:28.779Z,13.83
2019-02-17T11:25:58.104Z,13.40
2019-02-17T11:28:27.394Z,12.23
2019-02-17T11:30:56.727Z,13.00
2019-02-17T11:33:26.154Z,12.10
2019-02-17T11:35:56.168Z,11.60
2019-02-17T11:38:25.451Z,10.23
2019-02-17T11:40:54.788Z,12.80
2019-02-17T11:43:24.073Z,12.67
2019-02-17T11:45:53.388Z,12.47
2019-02-17T11:48:22.678Z,12.10
2019-02-17T11:50:51.978Z,10.77
2019-02-17T11:53:21.304Z,10.00
2019-02-17T11:55:50.609Z,10.53
2019-02-17T11:58:20.112Z,12.40
2019-02-17T12:00:49.392Z,11.53
2019-02-17T12:03:18.745Z,12.93
2019-02-17T12:05:48.045Z,20.90
2019-02-17T12:08:17.333Z,12.43
2019-02-17T12:10:46.795Z,10.17
2019-02-17T12:13:16.117Z,10.13
2019-02-17T12:15:45.433Z,11.93
2019-02-17T12:18:14.827Z,12.13
2019-02-17T12:21:14.944Z,11.17
2019-02-17T12:23:48.030Z,9.30
2019-02-17T12:26:37.606Z,11.10
2019-02-17T12:29:22.188Z,9.57
2019-02-17T12:31:51.471Z,9.57
2019-02-17T12:34:20.800Z,10.20
2019-02-17T12:36:50.092Z,9.27
2019-02-17T12:39:19.424Z,11.53
2019-02-17T12:41:48.722Z,8.70
2019-02-17T12:44:18.072Z,11.77
2019-02-17T12:46:47.361Z,12.13
2019-02-17T12:49:16.687Z,11.87
2019-02-17T12:51:46.004Z,11.27
2019-02-17T12:54:15.381Z,10.17
2019-02-17T12:56:44.799Z,13.60
2019-02-17T12:59:14.100Z,11.80
2019-02-17T13:01:45.371Z,10.80
2019-02-17T13:04:14.428Z,14.13
2019-02-17T13:06:43.768Z,13.43
2019-02-17T13:09:13.060Z,10.37
2019-02-17T13:11:42.403Z,10.00
2019-02-17T13:14:11.772Z,10.23
2019-02-17T13:16:41.068Z,14.07
2019-02-17T13:19:10.360Z,9.87
2019-02-17T13:21:39.700Z,10.83
2019-02-17T13:24:08.997Z,9.93
2019-02-17T13:26:38.280Z,9.77
2019-02-17T13:29:07.592Z,13.20
2019-02-17T13:31:36.881Z,12.03
2019-02-17T13:34:06.204Z,12.43
2019-02-17T13:36:35.528Z,10.63
2019-02-17T13:39:06.740Z,11.20
2019-02-17T13:41:36.055Z,12.03
2019-02-17T13:44:05.680Z,12.00
2019-02-17T13:46:35.024Z,10.10
2019-02-17T13:49:04.373Z,10.97
2019-02-17T13:51:33.653Z,11.27
2019-02-17T13:54:02.978Z,11.17
2019-02-17T13:56:32.307Z,9.40
2019-02-17T13:59:01.583Z,12.03
2019-02-17T14:01:30.976Z,10.17
2019-02-17T14:04:00.312Z,11.37
2019-02-17T14:06:29.597Z,10.70
2019-02-17T14:08:59.044Z,11.63
2019-02-17T14:11:28.381Z,16.27
2019-02-17T14:13:57.657Z,10.43
2019-02-17T14:16:26.975Z,11.93
2019-02-17T14:18:56.318Z,7.83
2019-02-17T14:21:25.644Z,9.83
2019-02-17T14:23:54.939Z,10.53
2019-02-17T14:26:24.268Z,10.43
2019-02-17T14:28:53.544Z,10.00
2019-02-17T14:31:22.872Z,11.93
2019-02-17T14:33:58.400Z,10.40
2019-02-17T14:36:23.248Z,13.20
2019-02-17T14:38:52.528Z,10.13
2019-02-17T14:41:21.812Z,13.40
2019-02-17T14:43:51.133Z,8.67
2019-02-17T14:46:20.404Z,12.17
2019-02-17T14:48:49.732Z,12.07
2019-02-17T14:51:19.042Z,10.70
2019-02-17T14:53:48.324Z,13.97
2019-02-17T14:56:17.670Z,25.00
2019-02-17T14:58:46.986Z,20.23
2019-02-17T15:01:16.269Z,18.60
2019-02-17T15:03:45.592Z,19.77
2019-02-17T15:06:14.922Z,12.67
2019-02-17T15:08:44.252Z,10.40
2019-02-17T15:11:13.532Z,15.27
2019-02-17T15:13:42.852Z,11.37
2019-02-17T15:16:12.176Z,11.30
2019-02-17T15:18:41.505Z,10.17
2019-02-17T15:21:10.829Z,13.83
2019-02-17T15:23:40.831Z,15.37
2019-02-17T15:26:10.736Z,22.80
2019-02-17T15:28:40.024Z,10.47
2019-02-17T15:31:09.302Z,10.37
2019-02-17T15:33:38.600Z,14.00
2019-02-17T15:36:07.940Z,9.03
2019-02-17T15:38:37.288Z,9.87
2019-02-17T15:41:06.616Z,10.33
2019-02-17T15:43:35.896Z,13.03
2019-02-17T15:46:05.224Z,10.87
2019-02-17T15:48:34.512Z,8.40
2019-02-17T15:51:06.537Z,10.53
2019-02-17T15:53:34.925Z,8.87
2019-02-17T15:56:04.297Z,12.03
2019-02-17T15:58:33.620Z,11.50
2019-02-17T16:01:04.250Z,13.20
2019-02-17T16:03:33.580Z,13.27
2019-02-17T16:06:03.353Z,12.43
2019-02-17T16:08:33.179Z,12.03
2019-02-17T16:11:03.816Z,13.73
2019-02-17T16:16:04.386Z,11.13
2019-02-17T16:18:33.788Z,14.53
2019-02-17T16:21:03.133Z,20.23
2019-02-17T16:23:32.440Z,45.97
2019-02-17T16:26:01.816Z,31.40
2019-02-17T16:28:31.116Z,14.77
2019-02-17T16:31:00.456Z,16.80
2019-02-17T16:33:29.757Z,40.50
2019-02-17T16:35:59.152Z,34.40
2019-02-17T16:38:28.552Z,17.27
2019-02-17T16:40:57.855Z,16.63
2019-02-17T16:43:27.185Z,25.90
2019-02-17T16:45:56.532Z,30.50
2019-02-17T16:48:25.856Z,35.37
2019-02-17T16:50:55.183Z,45.50
2019-02-17T16:53:24.511Z,38.27
2019-02-17T16:55:53.873Z,49.57
2019-02-17T16:58:25.910Z,61.83
2019-02-17T17:00:55.300Z,57.40
2019-02-17T17:03:24.744Z,57.50
2019-02-17T17:05:54.123Z,49.13
2019-02-17T17:08:23.799Z,47.63
2019-02-17T17:10:53.342Z,51.43
2019-02-17T17:13:22.815Z,51.17
2019-02-17T17:15:52.388Z,57.67
2019-02-17T17:18:21.924Z,53.93
2019-02-17T17:20:51.321Z,52.37
2019-02-17T17:23:20.652Z,49.80
2019-02-17T17:25:50.052Z,65.67
2019-02-17T17:28:19.423Z,96.57
2019-02-17T17:30:48.899Z,96.10
2019-02-17T17:33:18.225Z,66.53
2019-02-17T17:35:47.676Z,68.63
2019-02-17T17:38:17.028Z,63.37
2019-02-17T17:40:46.396Z,65.17
2019-02-17T17:43:15.736Z,64.43
2019-02-17T17:45:45.044Z,59.87
2019-02-17T17:48:14.489Z,56.93
2019-02-17T17:50:43.956Z,54.07
2019-02-17T17:53:13.245Z,56.43
2019-02-17T17:55:42.564Z,56.73
2019-02-17T17:58:11.903Z,60.13
2019-02-17T18:00:43.654Z,57.83
2019-02-17T18:03:12.270Z,62.43
2019-02-17T18:05:41.548Z,46.77
2019-02-17T18:08:10.901Z,49.37
2019-02-17T18:10:40.200Z,53.13
2019-02-17T18:13:10.551Z,47.80
2019-02-17T18:15:39.936Z,53.77
2019-02-17T18:18:09.307Z,50.27
2019-02-17T18:20:38.673Z,63.00
2019-02-17T18:23:08.016Z,62.20
2019-02-17T18:25:39.245Z,59.03
2019-02-17T18:28:08.593Z,55.93
2019-02-17T18:30:37.965Z,59.93
2019-02-17T18:33:07.308Z,74.77
2019-02-17T18:35:36.706Z,71.77
2019-02-17T18:38:06.068Z,68.23
2019-02-17T18:40:44.421Z,65.37
2019-02-17T18:43:06.612Z,66.37
2019-02-17T18:45:37.487Z,43.57
2019-02-17T18:48:06.862Z,33.27
2019-02-17T18:50:36.158Z,27.63
2019-02-17T18:53:05.492Z,33.80
2019-02-17T18:55:34.866Z,26.90
2019-02-17T18:58:04.232Z,25.90
2019-02-17T19:00:34.585Z,25.53
2019-02-17T19:03:03.933Z,27.17
2019-02-17T19:05:33.368Z,27.83
2019-02-17T19:08:02.697Z,28.70
2019-02-17T19:10:32.088Z,30.40
2019-02-17T19:13:01.432Z,27.70
2019-02-17T19:15:30.796Z,27.80
2019-02-17T19:18:00.112Z,30.80
2019-02-17T19:20:29.576Z,36.03
2019-02-17T19:22:58.951Z,37.70
2019-02-17T19:25:28.313Z,46.20
2019-02-17T19:27:57.664Z,40.23
2019-02-17T19:30:27.028Z,41.63
2019-02-17T19:32:56.373Z,32.80
2019-02-17T19:35:26.739Z,36.80
2019-02-17T19:37:56.096Z,30.50
2019-02-17T19:40:25.480Z,32.80
2019-02-17T19:42:54.868Z,34.70
2019-02-17T19:45:26.833Z,32.93
2019-02-17T19:47:56.238Z,32.17
2019-02-17T19:50:25.587Z,32.47
2019-02-17T19:52:55.596Z,29.33
2019-02-17T19:55:28.541Z,25.30
2019-02-17T19:57:58.322Z,30.57
2019-02-17T20:00:28.144Z,32.77
2019-02-17T20:03:22.684Z,30.27
2019-02-17T20:05:56.525Z,34.63
2019-02-17T20:08:28.817Z,31.40
2019-02-17T20:11:04.514Z,30.07
2019-02-17T20:13:34.941Z,28.60
2019-02-17T20:16:04.260Z,27.47
2019-02-17T20:18:34.594Z,28.13
2019-02-17T20:21:03.919Z,26.93
2019-02-17T20:23:33.457Z,27.33
2019-02-17T20:26:03.357Z,28.07
2019-02-17T20:28:43.084Z,26.57
2019-02-17T20:31:03.925Z,29.20
2019-02-17T20:33:34.232Z,30.17
2019-02-17T20:36:04.609Z,31.00
2019-02-17T20:38:33.947Z,27.83
2019-02-17T20:41:03.311Z,31.33
2019-02-17T20:43:32.702Z,33.57
2019-02-17T20:46:02.152Z,35.33
2019-02-17T20:48:31.497Z,33.40
2019-02-17T20:51:00.850Z,35.17
2019-02-17T20:53:30.368Z,32.23
2019-02-17T20:55:59.682Z,33.87
2019-02-17T20:58:29.121Z,30.70
2019-02-17T21:01:00.135Z,28.67
2019-02-17T21:03:29.497Z,32.70
2019-02-17T21:05:58.849Z,37.53
2019-02-17T21:08:28.208Z,45.73
2019-02-17T21:10:58.672Z,36.07
2019-02-17T21:13:28.085Z,40.60
2019-02-17T21:15:57.699Z,36.20
2019-02-17T21:18:27.100Z,35.17
2019-02-17T21:20:56.647Z,34.13
2019-02-17T21:23:26.128Z,34.97
2019-02-17T21:25:56.576Z,35.60
2019-02-17T21:28:25.983Z,37.03
2019-02-17T21:30:56.365Z,35.07
2019-02-17T21:33:25.781Z,32.57
2019-02-17T21:35:55.227Z,35.57
2019-02-17T21:38:24.592Z,30.73
2019-02-17T21:40:54.000Z,28.07
2019-02-17T21:43:23.500Z,28.50
2019-02-17T21:45:52.965Z,26.90
2019-02-17T21:48:23.926Z,26.10
2019-02-17T21:50:53.340Z,29.80
2019-02-17T21:53:23.802Z,29.03
2019-02-17T21:55:53.231Z,29.83
2019-02-17T21:58:22.736Z,28.03
2019-02-17T22:00:52.277Z,25.13
2019-02-17T22:03:21.673Z,27.50
2019-02-17T22:05:51.073Z,29.03
2019-02-17T22:08:20.604Z,29.40
2019-02-17T22:10:55.836Z,30.53
2019-02-17T22:13:25.252Z,28.03
2019-02-17T22:15:55.671Z,28.87
2019-02-17T22:18:25.028Z,30.30
2019-02-17T22:20:54.455Z,29.63
2019-02-17T22:23:24.008Z,26.63
2019-02-17T22:25:54.521Z,28.03
2019-02-17T22:28:24.168Z,25.33
2019-02-17T22:30:53.599Z,22.50
2019-02-17T22:33:22.996Z,22.20
2019-02-17T22:35:52.346Z,21.90
2019-02-17T22:38:21.783Z,22.07
2019-02-17T22:40:51.130Z,23.13
2019-02-17T22:43:20.398Z,25.83
2019-02-17T22:45:49.734Z,23.83
2019-02-17T22:48:19.016Z,24.90
2019-02-17T22:50:48.304Z,25.50
2019-02-17T22:53:17.738Z,21.23
2019-02-17T22:55:47.060Z,18.17
2019-02-17T22:58:16.384Z,17.80
2019-02-17T23:01:00.119Z,16.97
2019-02-17T23:03:30.183Z,19.17
2019-02-17T23:05:59.876Z,17.43
2019-02-17T23:08:29.216Z,16.97
2019-02-17T23:10:58.502Z,20.47
2019-02-17T23:13:27.820Z,18.77
2019-02-17T23:15:57.160Z,19.57
2019-02-17T23:18:26.476Z,20.70
2019-02-17T23:20:55.764Z,19.73
2019-02-17T23:23:25.096Z,20.03
2019-02-17T23:25:54.420Z,24.27
2019-02-17T23:28:23.702Z,22.20
2019-02-17T23:30:53.019Z,24.37
2019-02-17T23:33:22.341Z,19.77
2019-02-17T23:35:51.667Z,25.03
2019-02-17T23:38:20.941Z,23.80
2019-02-17T23:40:50.340Z,21.27
2019-02-17T23:43:19.668Z,20.20
2019-02-17T23:45:48.984Z,20.83
2019-02-17T23:48:18.472Z,20.90
2019-02-17T23:50:48.112Z,20.73
2019-02-17T23:53:17.505Z,21.80
2019-02-17T23:55:46.782Z,20.10
2019-02-17T23:58:17.134Z,21.00
